sensor_id;sensor_type;location;lat;lon;timestamp;P1;durP1;ratioP1;P2;durP2;ratioP2
7027;SDS011;3555;53.248;10.336;2022-10-16T00:00:46;5.95;;;3.95;;
7027;SDS011;3555;53.248;10.336;2022-10-16T00:03:13;6.88;;;4.30;;
7027;SDS011;3555;53.248;10.336;2022-10-16T00:05:40;5.13;;;4.03;;
7027;SDS011;3555;53.248;10.336;2022-10-16T00:08:09;7.68;;;4.05;;
7027;SDS011;3555;53.248;10.336;2022-10-16T00:10:37;4.40;;;3.40;;
7027;SDS011;3555;53.248;10.336;2022-10-16T00:13:04;5.03;;;3.72;;
7027;SDS011;3555;53.248;10.336;2022-10-16T00:15:33;5.43;;;4.15;;
7027;SDS011;3555;53.248;10.336;2022-10-16T00:18:02;4.88;;;3.50;;
7027;SDS011;3555;53.248;10.336;2022-10-16T00:20:29;5.97;;;3.63;;
7027;SDS011;3555;53.248;10.336;2022-10-16T00:22:58;4.55;;;3.78;;
7027;SDS011;3555;53.248;10.336;2022-10-16T00:25:25;4.00;;;3.60;;
7027;SDS011;3555;53.248;10.336;2022-10-16T00:27:52;5.18;;;3.13;;
7027;SDS011;3555;53.248;10.336;2022-10-16T00:30:18;4.88;;;4.13;;
7027;SDS011;3555;53.248;10.336;2022-10-16T00:32:47;3.80;;;3.40;;
7027;SDS011;3555;53.248;10.336;2022-10-16T00:35:14;3.85;;;3.53;;
7027;SDS011;3555;53.248;10.336;2022-10-16T00:37:40;5.43;;;3.38;;
7027;SDS011;3555;53.248;10.336;2022-10-16T00:40:07;5.28;;;3.15;;
7027;SDS011;3555;53.248;10.336;2022-10-16T00:42:35;3.25;;;2.90;;
7027;SDS011;3555;53.248;10.336;2022-10-16T00:45:03;6.65;;;3.13;;
7027;SDS011;3555;53.248;10.336;2022-10-16T00:47:31;3.30;;;2.90;;
7027;SDS011;3555;53.248;10.336;2022-10-16T00:50:04;6.90;;;2.78;;
7027;SDS011;3555;53.248;10.336;2022-10-16T00:52:35;5.30;;;2.60;;
7027;SDS011;3555;53.248;10.336;2022-10-16T00:55:05;5.90;;;2.80;;
7027;SDS011;3555;53.248;10.336;2022-10-16T00:57:34;4.00;;;2.33;;
7027;SDS011;3555;53.248;10.336;2022-10-16T01:00:02;5.25;;;2.40;;
7027;SDS011;3555;53.248;10.336;2022-10-16T01:02:30;3.60;;;1.83;;
7027;SDS011;3555;53.248;10.336;2022-10-16T01:04:57;2.08;;;1.65;;
7027;SDS011;3555;53.248;10.336;2022-10-16T01:07:30;5.45;;;1.73;;
7027;SDS011;3555;53.248;10.336;2022-10-16T01:10:06;4.30;;;1.70;;
7027;SDS011;3555;53.248;10.336;2022-10-16T01:12:41;3.28;;;1.70;;
7027;SDS011;3555;53.248;10.336;2022-10-16T01:15:13;7.50;;;1.60;;
7027;SDS011;3555;53.248;10.336;2022-10-16T01:17:45;3.42;;;1.50;;
7027;SDS011;3555;53.248;10.336;2022-10-16T01:20:20;1.60;;;1.27;;
7027;SDS011;3555;53.248;10.336;2022-10-16T01:23:01;4.70;;;1.67;;
7027;SDS011;3555;53.248;10.336;2022-10-16T01:25:53;2.90;;;1.77;;
7027;SDS011;3555;53.248;10.336;2022-10-16T01:28:32;2.47;;;1.50;;
7027;SDS011;3555;53.248;10.336;2022-10-16T01:31:04;1.83;;;1.48;;
7027;SDS011;3555;53.248;10.336;2022-10-16T01:33:34;3.33;;;1.45;;
7027;SDS011;3555;53.248;10.336;2022-10-16T01:36:06;1.83;;;1.40;;
7027;SDS011;3555;53.248;10.336;2022-10-16T01:38:38;3.05;;;1.42;;
7027;SDS011;3555;53.248;10.336;2022-10-16T01:41:07;3.30;;;1.48;;
7027;SDS011;3555;53.248;10.336;2022-10-16T01:43:38;2.33;;;1.27;;
7027;SDS011;3555;53.248;10.336;2022-10-16T01:46:08;2.10;;;1.35;;
7027;SDS011;3555;53.248;10.336;2022-10-16T01:48:39;2.00;;;1.35;;
7027;SDS011;3555;53.248;10.336;2022-10-16T01:51:07;3.70;;;1.48;;
7027;SDS011;3555;53.248;10.336;2022-10-16T01:53:36;3.33;;;1.45;;
7027;SDS011;3555;53.248;10.336;2022-10-16T01:56:05;3.42;;;1.60;;
7027;SDS011;3555;53.248;10.336;2022-10-16T01:58:37;3.67;;;1.15;;
7027;SDS011;3555;53.248;10.336;2022-10-16T02:01:11;4.65;;;1.30;;
7027;SDS011;3555;53.248;10.336;2022-10-16T02:03:41;2.55;;;1.30;;
7027;SDS011;3555;53.248;10.336;2022-10-16T02:06:11;3.42;;;1.20;;
7027;SDS011;3555;53.248;10.336;2022-10-16T02:08:38;5.78;;;1.33;;
7027;SDS011;3555;53.248;10.336;2022-10-16T02:11:09;2.95;;;1.30;;
7027;SDS011;3555;53.248;10.336;2022-10-16T02:13:37;3.97;;;1.70;;
7027;SDS011;3555;53.248;10.336;2022-10-16T02:16:11;3.58;;;1.17;;
7027;SDS011;3555;53.248;10.336;2022-10-16T02:18:39;5.03;;;1.40;;
7027;SDS011;3555;53.248;10.336;2022-10-16T02:21:07;4.07;;;1.38;;
7027;SDS011;3555;53.248;10.336;2022-10-16T02:23:43;4.53;;;1.30;;
7027;SDS011;3555;53.248;10.336;2022-10-16T02:26:16;3.08;;;1.42;;
7027;SDS011;3555;53.248;10.336;2022-10-16T02:28:52;2.97;;;1.30;;
7027;SDS011;3555;53.248;10.336;2022-10-16T02:31:27;2.45;;;1.40;;
7027;SDS011;3555;53.248;10.336;2022-10-16T02:33:59;2.78;;;1.20;;
7027;SDS011;3555;53.248;10.336;2022-10-16T02:36:27;2.60;;;1.27;;
7027;SDS011;3555;53.248;10.336;2022-10-16T02:38:55;2.28;;;1.23;;
7027;SDS011;3555;53.248;10.336;2022-10-16T02:41:22;3.33;;;1.42;;
7027;SDS011;3555;53.248;10.336;2022-10-16T02:43:50;3.70;;;1.50;;
7027;SDS011;3555;53.248;10.336;2022-10-16T02:46:17;3.17;;;1.60;;
7027;SDS011;3555;53.248;10.336;2022-10-16T02:48:46;1.80;;;1.40;;
7027;SDS011;3555;53.248;10.336;2022-10-16T02:51:12;3.38;;;1.25;;
7027;SDS011;3555;53.248;10.336;2022-10-16T02:53:39;3.40;;;1.30;;
7027;SDS011;3555;53.248;10.336;2022-10-16T02:56:06;3.55;;;1.38;;
7027;SDS011;3555;53.248;10.336;2022-10-16T02:58:33;2.22;;;1.15;;
7027;SDS011;3555;53.248;10.336;2022-10-16T03:01:00;4.65;;;1.40;;
7027;SDS011;3555;53.248;10.336;2022-10-16T03:03:27;2.88;;;1.50;;
7027;SDS011;3555;53.248;10.336;2022-10-16T03:05:55;5.93;;;1.40;;
7027;SDS011;3555;53.248;10.336;2022-10-16T03:08:22;3.78;;;1.70;;
7027;SDS011;3555;53.248;10.336;2022-10-16T03:10:50;2.47;;;1.17;;
7027;SDS011;3555;53.248;10.336;2022-10-16T03:13:17;3.40;;;1.40;;
7027;SDS011;3555;53.248;10.336;2022-10-16T03:15:45;4.10;;;1.42;;
7027;SDS011;3555;53.248;10.336;2022-10-16T03:18:12;3.38;;;1.40;;
7027;SDS011;3555;53.248;10.336;2022-10-16T03:20:39;3.95;;;1.45;;
7027;SDS011;3555;53.248;10.336;2022-10-16T03:23:07;3.25;;;1.40;;
7027;SDS011;3555;53.248;10.336;2022-10-16T03:25:34;3.08;;;1.15;;
7027;SDS011;3555;53.248;10.336;2022-10-16T03:28:00;5.77;;;1.40;;
7027;SDS011;3555;53.248;10.336;2022-10-16T03:30:28;3.17;;;1.23;;
7027;SDS011;3555;53.248;10.336;2022-10-16T03:32:55;3.15;;;1.35;;
7027;SDS011;3555;53.248;10.336;2022-10-16T03:35:22;2.40;;;1.30;;
7027;SDS011;3555;53.248;10.336;2022-10-16T03:37:50;4.17;;;1.37;;
7027;SDS011;3555;53.248;10.336;2022-10-16T03:40:18;2.93;;;1.37;;
7027;SDS011;3555;53.248;10.336;2022-10-16T03:42:45;3.42;;;1.27;;
7027;SDS011;3555;53.248;10.336;2022-10-16T03:45:12;3.80;;;1.40;;
7027;SDS011;3555;53.248;10.336;2022-10-16T03:47:39;5.67;;;1.60;;
7027;SDS011;3555;53.248;10.336;2022-10-16T03:50:06;5.55;;;1.80;;
7027;SDS011;3555;53.248;10.336;2022-10-16T03:52:33;5.50;;;1.60;;
7027;SDS011;3555;53.248;10.336;2022-10-16T03:55:00;2.25;;;1.20;;
7027;SDS011;3555;53.248;10.336;2022-10-16T03:57:28;2.75;;;1.30;;
7027;SDS011;3555;53.248;10.336;2022-10-16T03:59:55;3.42;;;1.30;;
7027;SDS011;3555;53.248;10.336;2022-10-16T04:02:22;3.20;;;1.20;;
7027;SDS011;3555;53.248;10.336;2022-10-16T04:04:48;3.67;;;1.40;;
7027;SDS011;3555;53.248;10.336;2022-10-16T04:07:15;3.13;;;1.30;;
7027;SDS011;3555;53.248;10.336;2022-10-16T04:09:42;6.38;;;1.42;;
7027;SDS011;3555;53.248;10.336;2022-10-16T04:12:09;4.47;;;1.20;;
7027;SDS011;3555;53.248;10.336;2022-10-16T04:14:37;4.67;;;1.40;;
7027;SDS011;3555;53.248;10.336;2022-10-16T04:17:04;5.60;;;1.50;;
7027;SDS011;3555;53.248;10.336;2022-10-16T04:19:31;4.50;;;1.40;;
7027;SDS011;3555;53.248;10.336;2022-10-16T04:21:57;3.03;;;1.38;;
7027;SDS011;3555;53.248;10.336;2022-10-16T04:24:24;2.72;;;1.50;;
7027;SDS011;3555;53.248;10.336;2022-10-16T04:26:51;4.27;;;1.73;;
7027;SDS011;3555;53.248;10.336;2022-10-16T04:29:18;3.17;;;1.50;;
7027;SDS011;3555;53.248;10.336;2022-10-16T04:31:46;5.57;;;1.60;;
7027;SDS011;3555;53.248;10.336;2022-10-16T04:34:13;1.93;;;1.10;;
7027;SDS011;3555;53.248;10.336;2022-10-16T04:36:40;8.43;;;1.50;;
7027;SDS011;3555;53.248;10.336;2022-10-16T04:39:06;7.53;;;1.87;;
7027;SDS011;3555;53.248;10.336;2022-10-16T04:41:33;2.33;;;1.50;;
7027;SDS011;3555;53.248;10.336;2022-10-16T04:44:00;3.90;;;1.37;;
7027;SDS011;3555;53.248;10.336;2022-10-16T04:46:27;3.00;;;1.53;;
7027;SDS011;3555;53.248;10.336;2022-10-16T04:48:55;3.37;;;1.50;;
7027;SDS011;3555;53.248;10.336;2022-10-16T04:51:22;4.47;;;1.70;;
7027;SDS011;3555;53.248;10.336;2022-10-16T04:53:50;1.87;;;1.43;;
7027;SDS011;3555;53.248;10.336;2022-10-16T04:56:17;4.23;;;1.70;;
7027;SDS011;3555;53.248;10.336;2022-10-16T04:58:45;5.97;;;2.20;;
7027;SDS011;3555;53.248;10.336;2022-10-16T05:01:11;4.73;;;1.57;;
7027;SDS011;3555;53.248;10.336;2022-10-16T05:03:38;5.00;;;1.70;;
7027;SDS011;3555;53.248;10.336;2022-10-16T05:06:07;6.80;;;1.90;;
7027;SDS011;3555;53.248;10.336;2022-10-16T05:08:34;4.03;;;1.60;;
7027;SDS011;3555;53.248;10.336;2022-10-16T05:11:00;3.05;;;1.60;;
7027;SDS011;3555;53.248;10.336;2022-10-16T05:13:27;4.40;;;1.60;;
7027;SDS011;3555;53.248;10.336;2022-10-16T05:15:54;2.93;;;1.50;;
7027;SDS011;3555;53.248;10.336;2022-10-16T05:18:22;5.87;;;1.70;;
7027;SDS011;3555;53.248;10.336;2022-10-16T05:20:48;4.27;;;1.70;;
7027;SDS011;3555;53.248;10.336;2022-10-16T05:23:17;6.00;;;1.73;;
7027;SDS011;3555;53.248;10.336;2022-10-16T05:25:51;4.07;;;1.50;;
7027;SDS011;3555;53.248;10.336;2022-10-16T05:28:19;9.93;;;1.97;;
7027;SDS011;3555;53.248;10.336;2022-10-16T05:30:46;8.07;;;1.83;;
7027;SDS011;3555;53.248;10.336;2022-10-16T05:33:12;2.93;;;1.50;;
7027;SDS011;3555;53.248;10.336;2022-10-16T05:35:39;5.47;;;1.70;;
7027;SDS011;3555;53.248;10.336;2022-10-16T05:38:06;2.87;;;1.70;;
7027;SDS011;3555;53.248;10.336;2022-10-16T05:40:34;4.10;;;1.67;;
7027;SDS011;3555;53.248;10.336;2022-10-16T05:43:01;6.07;;;1.73;;
7027;SDS011;3555;53.248;10.336;2022-10-16T05:45:28;4.80;;;2.10;;
7027;SDS011;3555;53.248;10.336;2022-10-16T05:47:55;2.47;;;1.60;;
7027;SDS011;3555;53.248;10.336;2022-10-16T05:50:21;3.30;;;1.75;;
7027;SDS011;3555;53.248;10.336;2022-10-16T05:52:48;3.73;;;1.73;;
7027;SDS011;3555;53.248;10.336;2022-10-16T05:55:15;3.13;;;1.67;;
7027;SDS011;3555;53.248;10.336;2022-10-16T05:57:43;6.00;;;1.80;;
7027;SDS011;3555;53.248;10.336;2022-10-16T06:00:10;3.20;;;1.53;;
7027;SDS011;3555;53.248;10.336;2022-10-16T06:02:37;2.73;;;1.50;;
7027;SDS011;3555;53.248;10.336;2022-10-16T06:05:04;2.50;;;1.70;;
7027;SDS011;3555;53.248;10.336;2022-10-16T06:07:33;4.37;;;1.70;;
7027;SDS011;3555;53.248;10.336;2022-10-16T06:10:01;5.93;;;1.70;;
7027;SDS011;3555;53.248;10.336;2022-10-16T06:12:29;5.30;;;2.10;;
7027;SDS011;3555;53.248;10.336;2022-10-16T06:14:57;5.30;;;1.80;;
7027;SDS011;3555;53.248;10.336;2022-10-16T06:17:24;5.23;;;1.70;;
7027;SDS011;3555;53.248;10.336;2022-10-16T06:19:51;5.03;;;1.80;;
7027;SDS011;3555;53.248;10.336;2022-10-16T06:22:17;5.20;;;1.60;;
7027;SDS011;3555;53.248;10.336;2022-10-16T06:24:45;3.60;;;1.93;;
7027;SDS011;3555;53.248;10.336;2022-10-16T06:27:12;6.40;;;1.83;;
7027;SDS011;3555;53.248;10.336;2022-10-16T06:29:39;6.13;;;1.63;;
7027;SDS011;3555;53.248;10.336;2022-10-16T06:32:09;2.27;;;1.67;;
7027;SDS011;3555;53.248;10.336;2022-10-16T06:34:36;3.13;;;2.00;;
7027;SDS011;3555;53.248;10.336;2022-10-16T06:37:05;3.23;;;1.97;;
7027;SDS011;3555;53.248;10.336;2022-10-16T06:39:31;3.70;;;1.83;;
7027;SDS011;3555;53.248;10.336;2022-10-16T06:41:58;3.63;;;1.70;;
7027;SDS011;3555;53.248;10.336;2022-10-16T06:44:25;7.33;;;2.00;;
7027;SDS011;3555;53.248;10.336;2022-10-16T06:46:52;5.43;;;2.00;;
7027;SDS011;3555;53.248;10.336;2022-10-16T06:49:20;6.20;;;2.33;;
7027;SDS011;3555;53.248;10.336;2022-10-16T06:51:48;2.77;;;1.67;;
7027;SDS011;3555;53.248;10.336;2022-10-16T06:54:15;4.25;;;1.95;;
7027;SDS011;3555;53.248;10.336;2022-10-16T06:56:42;2.90;;;1.83;;
7027;SDS011;3555;53.248;10.336;2022-10-16T06:59:09;4.35;;;1.88;;
7027;SDS011;3555;53.248;10.336;2022-10-16T07:01:36;3.80;;;2.00;;
7027;SDS011;3555;53.248;10.336;2022-10-16T07:04:03;4.82;;;2.05;;
7027;SDS011;3555;53.248;10.336;2022-10-16T07:06:34;2.50;;;1.50;;
7027;SDS011;3555;53.248;10.336;2022-10-16T07:09:01;6.18;;;1.80;;
7027;SDS011;3555;53.248;10.336;2022-10-16T07:11:29;4.53;;;1.97;;
7027;SDS011;3555;53.248;10.336;2022-10-16T07:13:56;2.92;;;1.92;;
7027;SDS011;3555;53.248;10.336;2022-10-16T07:16:24;3.57;;;1.83;;
7027;SDS011;3555;53.248;10.336;2022-10-16T07:18:53;5.85;;;1.75;;
7027;SDS011;3555;53.248;10.336;2022-10-16T07:21:23;3.50;;;1.67;;
7027;SDS011;3555;53.248;10.336;2022-10-16T07:23:53;3.95;;;1.80;;
7027;SDS011;3555;53.248;10.336;2022-10-16T07:26:21;3.95;;;1.80;;
7027;SDS011;3555;53.248;10.336;2022-10-16T07:28:48;3.88;;;1.83;;
7027;SDS011;3555;53.248;10.336;2022-10-16T07:31:16;2.90;;;1.40;;
7027;SDS011;3555;53.248;10.336;2022-10-16T07:33:45;4.18;;;1.63;;
7027;SDS011;3555;53.248;10.336;2022-10-16T07:36:13;3.10;;;1.60;;
7027;SDS011;3555;53.248;10.336;2022-10-16T07:38:40;6.50;;;1.40;;
7027;SDS011;3555;53.248;10.336;2022-10-16T07:41:10;3.42;;;1.30;;
7027;SDS011;3555;53.248;10.336;2022-10-16T07:43:39;5.03;;;1.70;;
7027;SDS011;3555;53.248;10.336;2022-10-16T07:46:06;5.57;;;1.40;;
7027;SDS011;3555;53.248;10.336;2022-10-16T07:48:33;5.07;;;1.60;;
7027;SDS011;3555;53.248;10.336;2022-10-16T07:51:01;2.67;;;1.30;;
7027;SDS011;3555;53.248;10.336;2022-10-16T07:53:30;3.30;;;1.52;;
7027;SDS011;3555;53.248;10.336;2022-10-16T07:55:57;2.58;;;1.30;;
7027;SDS011;3555;53.248;10.336;2022-10-16T07:58:26;2.35;;;1.10;;
7027;SDS011;3555;53.248;10.336;2022-10-16T08:00:53;2.40;;;1.38;;
7027;SDS011;3555;53.248;10.336;2022-10-16T08:03:20;1.92;;;1.05;;
7027;SDS011;3555;53.248;10.336;2022-10-16T08:05:47;2.28;;;1.15;;
7027;SDS011;3555;53.248;10.336;2022-10-16T08:08:14;4.47;;;1.10;;
7027;SDS011;3555;53.248;10.336;2022-10-16T08:10:42;2.42;;;1.20;;
7027;SDS011;3555;53.248;10.336;2022-10-16T08:13:09;2.47;;;1.40;;
7027;SDS011;3555;53.248;10.336;2022-10-16T08:15:37;1.95;;;1.00;;
7027;SDS011;3555;53.248;10.336;2022-10-16T08:18:05;2.75;;;1.27;;
7027;SDS011;3555;53.248;10.336;2022-10-16T08:20:32;3.17;;;1.60;;
7027;SDS011;3555;53.248;10.336;2022-10-16T08:22:59;4.47;;;1.35;;
7027;SDS011;3555;53.248;10.336;2022-10-16T08:25:27;3.38;;;1.23;;
7027;SDS011;3555;53.248;10.336;2022-10-16T08:27:54;5.10;;;1.88;;
7027;SDS011;3555;53.248;10.336;2022-10-16T08:30:21;2.97;;;1.50;;
7027;SDS011;3555;53.248;10.336;2022-10-16T08:32:51;2.65;;;1.23;;
7027;SDS011;3555;53.248;10.336;2022-10-16T08:35:18;2.20;;;1.10;;
7027;SDS011;3555;53.248;10.336;2022-10-16T08:37:44;4.10;;;1.40;;
7027;SDS011;3555;53.248;10.336;2022-10-16T08:40:17;2.75;;;1.60;;
7027;SDS011;3555;53.248;10.336;2022-10-16T08:42:49;4.32;;;1.77;;
7027;SDS011;3555;53.248;10.336;2022-10-16T08:45:31;3.92;;;1.05;;
7027;SDS011;3555;53.248;10.336;2022-10-16T08:48:11;2.83;;;1.35;;
7027;SDS011;3555;53.248;10.336;2022-10-16T08:50:42;3.58;;;1.40;;
7027;SDS011;3555;53.248;10.336;2022-10-16T08:53:11;3.80;;;1.10;;
7027;SDS011;3555;53.248;10.336;2022-10-16T08:55:45;3.75;;;1.27;;
7027;SDS011;3555;53.248;10.336;2022-10-16T08:58:15;4.18;;;1.20;;
7027;SDS011;3555;53.248;10.336;2022-10-16T09:00:43;2.25;;;1.60;;
7027;SDS011;3555;53.248;10.336;2022-10-16T09:03:16;1.63;;;1.10;;
7027;SDS011;3555;53.248;10.336;2022-10-16T09:05:57;2.75;;;1.20;;
7027;SDS011;3555;53.248;10.336;2022-10-16T09:08:34;3.55;;;1.08;;
7027;SDS011;3555;53.248;10.336;2022-10-16T09:11:11;3.00;;;0.95;;
7027;SDS011;3555;53.248;10.336;2022-10-16T09:13:46;2.20;;;1.20;;
7027;SDS011;3555;53.248;10.336;2022-10-16T09:16:18;3.08;;;1.25;;
7027;SDS011;3555;53.248;10.336;2022-10-16T09:18:52;1.52;;;1.20;;
7027;SDS011;3555;53.248;10.336;2022-10-16T09:21:25;2.67;;;1.00;;
7027;SDS011;3555;53.248;10.336;2022-10-16T09:23:54;2.38;;;1.20;;
7027;SDS011;3555;53.248;10.336;2022-10-16T09:26:25;4.78;;;1.20;;
7027;SDS011;3555;53.248;10.336;2022-10-16T09:28:52;2.83;;;0.93;;
7027;SDS011;3555;53.248;10.336;2022-10-16T09:31:20;2.10;;;1.05;;
7027;SDS011;3555;53.248;10.336;2022-10-16T09:33:48;5.82;;;1.23;;
7027;SDS011;3555;53.248;10.336;2022-10-16T09:36:20;3.92;;;1.00;;
7027;SDS011;3555;53.248;10.336;2022-10-16T09:38:49;4.72;;;0.80;;
7027;SDS011;3555;53.248;10.336;2022-10-16T09:41:19;2.47;;;1.08;;
7027;SDS011;3555;53.248;10.336;2022-10-16T09:43:48;3.78;;;0.90;;
7027;SDS011;3555;53.248;10.336;2022-10-16T09:46:22;3.40;;;0.75;;
7027;SDS011;3555;53.248;10.336;2022-10-16T09:48:55;3.95;;;0.90;;
7027;SDS011;3555;53.248;10.336;2022-10-16T09:51:24;1.52;;;0.68;;
7027;SDS011;3555;53.248;10.336;2022-10-16T09:53:57;1.42;;;0.80;;
7027;SDS011;3555;53.248;10.336;2022-10-16T09:56:26;2.17;;;0.80;;
7027;SDS011;3555;53.248;10.336;2022-10-16T09:58:55;2.20;;;0.80;;
7027;SDS011;3555;53.248;10.336;2022-10-16T10:01:24;3.67;;;0.90;;
7027;SDS011;3555;53.248;10.336;2022-10-16T10:03:57;2.13;;;1.00;;
7027;SDS011;3555;53.248;10.336;2022-10-16T10:06:28;4.00;;;0.98;;
7027;SDS011;3555;53.248;10.336;2022-10-16T10:09:03;2.15;;;1.10;;
7027;SDS011;3555;53.248;10.336;2022-10-16T10:11:39;3.85;;;1.10;;
7027;SDS011;3555;53.248;10.336;2022-10-16T10:14:12;2.22;;;0.80;;
7027;SDS011;3555;53.248;10.336;2022-10-16T10:16:46;4.22;;;0.82;;
7027;SDS011;3555;53.248;10.336;2022-10-16T10:19:15;3.03;;;1.00;;
7027;SDS011;3555;53.248;10.336;2022-10-16T10:21:44;4.93;;;0.95;;
7027;SDS011;3555;53.248;10.336;2022-10-16T10:24:12;5.60;;;1.10;;
7027;SDS011;3555;53.248;10.336;2022-10-16T10:26:41;3.60;;;1.33;;
7027;SDS011;3555;53.248;10.336;2022-10-16T10:29:34;3.85;;;1.15;;
7027;SDS011;3555;53.248;10.336;2022-10-16T10:32:15;1.77;;;0.75;;
7027;SDS011;3555;53.248;10.336;2022-10-16T10:34:58;4.82;;;0.85;;
7027;SDS011;3555;53.248;10.336;2022-10-16T10:37:46;4.05;;;1.00;;
7027;SDS011;3555;53.248;10.336;2022-10-16T10:40:28;2.90;;;0.63;;
7027;SDS011;3555;53.248;10.336;2022-10-16T10:43:06;4.32;;;0.98;;
7027;SDS011;3555;53.248;10.336;2022-10-16T10:45:42;1.63;;;0.88;;
7027;SDS011;3555;53.248;10.336;2022-10-16T10:51:11;4.43;;;1.00;;
7027;SDS011;3555;53.248;10.336;2022-10-16T10:53:43;2.40;;;1.00;;
7027;SDS011;3555;53.248;10.336;2022-10-16T10:56:16;2.53;;;0.80;;
7027;SDS011;3555;53.248;10.336;2022-10-16T10:58:59;2.20;;;0.80;;
7027;SDS011;3555;53.248;10.336;2022-10-16T11:01:37;6.65;;;1.02;;
7027;SDS011;3555;53.248;10.336;2022-10-16T11:04:19;2.05;;;0.60;;
7027;SDS011;3555;53.248;10.336;2022-10-16T11:07:09;3.33;;;0.68;;
7027;SDS011;3555;53.248;10.336;2022-10-16T11:09:41;2.25;;;0.90;;
7027;SDS011;3555;53.248;10.336;2022-10-16T11:12:12;2.72;;;0.75;;
7027;SDS011;3555;53.248;10.336;2022-10-16T11:14:45;1.77;;;0.77;;
7027;SDS011;3555;53.248;10.336;2022-10-16T11:17:17;2.10;;;0.93;;
7027;SDS011;3555;53.248;10.336;2022-10-16T11:19:51;4.30;;;0.80;;
7027;SDS011;3555;53.248;10.336;2022-10-16T11:22:23;4.60;;;0.98;;
7027;SDS011;3555;53.248;10.336;2022-10-16T11:24:55;1.35;;;0.70;;
7027;SDS011;3555;53.248;10.336;2022-10-16T11:27:39;4.82;;;0.90;;
7027;SDS011;3555;53.248;10.336;2022-10-16T11:30:12;1.58;;;0.70;;
7027;SDS011;3555;53.248;10.336;2022-10-16T11:32:48;2.40;;;0.70;;
7027;SDS011;3555;53.248;10.336;2022-10-16T11:35:33;3.67;;;1.10;;
7027;SDS011;3555;53.248;10.336;2022-10-16T11:38:09;3.95;;;0.90;;
7027;SDS011;3555;53.248;10.336;2022-10-16T11:40:41;4.97;;;1.10;;
7027;SDS011;3555;53.248;10.336;2022-10-16T11:43:14;4.38;;;1.05;;
7027;SDS011;3555;53.248;10.336;2022-10-16T11:45:46;2.05;;;0.80;;
7027;SDS011;3555;53.248;10.336;2022-10-16T11:48:18;3.00;;;1.25;;
7027;SDS011;3555;53.248;10.336;2022-10-16T11:50:52;1.25;;;0.75;;
7027;SDS011;3555;53.248;10.336;2022-10-16T11:53:23;5.07;;;1.17;;
7027;SDS011;3555;53.248;10.336;2022-10-16T11:56:01;1.92;;;0.60;;
7027;SDS011;3555;53.248;10.336;2022-10-16T11:58:29;1.95;;;0.80;;
7027;SDS011;3555;53.248;10.336;2022-10-16T12:01:01;2.13;;;0.70;;
7027;SDS011;3555;53.248;10.336;2022-10-16T12:03:44;3.22;;;1.13;;
7027;SDS011;3555;53.248;10.336;2022-10-16T12:06:18;3.65;;;1.27;;
7027;SDS011;3555;53.248;10.336;2022-10-16T12:08:54;2.70;;;0.90;;
7027;SDS011;3555;53.248;10.336;2022-10-16T12:11:30;2.92;;;1.00;;
7027;SDS011;3555;53.248;10.336;2022-10-16T12:14:22;2.45;;;0.70;;
7027;SDS011;3555;53.248;10.336;2022-10-16T12:17:02;2.35;;;1.00;;
7027;SDS011;3555;53.248;10.336;2022-10-16T12:19:56;2.83;;;0.95;;
7027;SDS011;3555;53.248;10.336;2022-10-16T12:22:24;1.67;;;0.80;;
7027;SDS011;3555;53.248;10.336;2022-10-16T12:24:56;3.10;;;0.95;;
7027;SDS011;3555;53.248;10.336;2022-10-16T12:27:25;2.10;;;0.82;;
7027;SDS011;3555;53.248;10.336;2022-10-16T12:29:56;3.88;;;0.80;;
7027;SDS011;3555;53.248;10.336;2022-10-16T12:32:28;2.78;;;0.85;;
7027;SDS011;3555;53.248;10.336;2022-10-16T12:34:57;1.52;;;0.80;;
7027;SDS011;3555;53.248;10.336;2022-10-16T12:37:25;5.72;;;1.02;;
7027;SDS011;3555;53.248;10.336;2022-10-16T12:39:56;3.92;;;1.40;;
7027;SDS011;3555;53.248;10.336;2022-10-16T12:42:33;1.30;;;0.70;;
7027;SDS011;3555;53.248;10.336;2022-10-16T12:45:00;2.80;;;0.80;;
7027;SDS011;3555;53.248;10.336;2022-10-16T12:47:47;1.85;;;0.80;;
7027;SDS011;3555;53.248;10.336;2022-10-16T12:50:30;3.00;;;1.00;;
7027;SDS011;3555;53.248;10.336;2022-10-16T12:52:59;3.03;;;0.85;;
7027;SDS011;3555;53.248;10.336;2022-10-16T12:55:31;3.60;;;1.00;;
7027;SDS011;3555;53.248;10.336;2022-10-16T12:58:27;3.20;;;1.33;;
7027;SDS011;3555;53.248;10.336;2022-10-16T13:01:06;4.00;;;1.33;;
7027;SDS011;3555;53.248;10.336;2022-10-16T13:03:46;3.90;;;0.93;;
7027;SDS011;3555;53.248;10.336;2022-10-16T13:06:33;1.90;;;0.80;;
7027;SDS011;3555;53.248;10.336;2022-10-16T13:09:08;2.42;;;0.90;;
7027;SDS011;3555;53.248;10.336;2022-10-16T13:11:52;2.22;;;1.02;;
7027;SDS011;3555;53.248;10.336;2022-10-16T13:17:31;2.45;;;0.93;;
7027;SDS011;3555;53.248;10.336;2022-10-16T13:20:09;4.00;;;0.80;;
7027;SDS011;3555;53.248;10.336;2022-10-16T13:22:45;2.97;;;0.98;;
7027;SDS011;3555;53.248;10.336;2022-10-16T13:25:22;3.45;;;1.13;;
7027;SDS011;3555;53.248;10.336;2022-10-16T13:27:56;4.47;;;0.75;;
7027;SDS011;3555;53.248;10.336;2022-10-16T13:30:27;4.32;;;1.20;;
7027;SDS011;3555;53.248;10.336;2022-10-16T13:32:58;2.15;;;0.80;;
7027;SDS011;3555;53.248;10.336;2022-10-16T13:35:27;2.20;;;0.75;;
7027;SDS011;3555;53.248;10.336;2022-10-16T13:38:05;5.85;;;0.90;;
7027;SDS011;3555;53.248;10.336;2022-10-16T13:40:48;1.75;;;0.80;;
7027;SDS011;3555;53.248;10.336;2022-10-16T13:43:21;3.17;;;1.00;;
7027;SDS011;3555;53.248;10.336;2022-10-16T13:45:54;3.70;;;0.95;;
7027;SDS011;3555;53.248;10.336;2022-10-16T13:48:22;2.30;;;0.93;;
7027;SDS011;3555;53.248;10.336;2022-10-16T13:50:58;2.35;;;0.70;;
7027;SDS011;3555;53.248;10.336;2022-10-16T13:53:30;2.78;;;0.95;;
7027;SDS011;3555;53.248;10.336;2022-10-16T13:55:58;3.03;;;0.85;;
7027;SDS011;3555;53.248;10.336;2022-10-16T13:58:27;2.60;;;0.90;;
7027;SDS011;3555;53.248;10.336;2022-10-16T14:00:56;2.30;;;0.80;;
7027;SDS011;3555;53.248;10.336;2022-10-16T14:03:24;4.45;;;1.00;;
7027;SDS011;3555;53.248;10.336;2022-10-16T14:05:52;1.73;;;0.68;;
7027;SDS011;3555;53.248;10.336;2022-10-16T14:08:21;2.97;;;0.90;;
7027;SDS011;3555;53.248;10.336;2022-10-16T14:10:50;5.68;;;1.35;;
7027;SDS011;3555;53.248;10.336;2022-10-16T14:13:20;3.75;;;0.80;;
7027;SDS011;3555;53.248;10.336;2022-10-16T14:15:57;2.40;;;0.90;;
7027;SDS011;3555;53.248;10.336;2022-10-16T14:18:28;5.13;;;0.98;;
7027;SDS011;3555;53.248;10.336;2022-10-16T14:21:02;2.88;;;1.20;;
7027;SDS011;3555;53.248;10.336;2022-10-16T14:23:30;5.22;;;1.05;;
7027;SDS011;3555;53.248;10.336;2022-10-16T14:26:13;3.45;;;1.05;;
7027;SDS011;3555;53.248;10.336;2022-10-16T14:28:42;5.30;;;1.00;;
7027;SDS011;3555;53.248;10.336;2022-10-16T14:31:30;3.67;;;1.00;;
7027;SDS011;3555;53.248;10.336;2022-10-16T14:33:58;1.40;;;0.80;;
7027;SDS011;3555;53.248;10.336;2022-10-16T14:36:26;3.30;;;1.25;;
7027;SDS011;3555;53.248;10.336;2022-10-16T14:38:56;1.30;;;0.88;;
7027;SDS011;3555;53.248;10.336;2022-10-16T14:41:27;2.45;;;1.13;;
7027;SDS011;3555;53.248;10.336;2022-10-16T14:43:55;4.47;;;0.93;;
7027;SDS011;3555;53.248;10.336;2022-10-16T14:46:30;4.00;;;1.00;;
7027;SDS011;3555;53.248;10.336;2022-10-16T14:49:02;3.35;;;0.70;;
7027;SDS011;3555;53.248;10.336;2022-10-16T14:51:31;5.43;;;0.98;;
7027;SDS011;3555;53.248;10.336;2022-10-16T14:53:57;3.92;;;0.95;;
7027;SDS011;3555;53.248;10.336;2022-10-16T14:56:25;3.92;;;1.15;;
7027;SDS011;3555;53.248;10.336;2022-10-16T14:58:55;3.63;;;1.08;;
7027;SDS011;3555;53.248;10.336;2022-10-16T15:01:22;2.47;;;0.98;;
7027;SDS011;3555;53.248;10.336;2022-10-16T15:03:51;3.88;;;1.02;;
7027;SDS011;3555;53.248;10.336;2022-10-16T15:06:19;2.50;;;0.90;;
7027;SDS011;3555;53.248;10.336;2022-10-16T15:08:47;2.22;;;1.45;;
7027;SDS011;3555;53.248;10.336;2022-10-16T15:11:14;3.53;;;1.08;;
7027;SDS011;3555;53.248;10.336;2022-10-16T15:13:44;3.30;;;0.82;;
7027;SDS011;3555;53.248;10.336;2022-10-16T15:16:11;2.60;;;1.00;;
7027;SDS011;3555;53.248;10.336;2022-10-16T15:18:40;3.20;;;1.00;;
7027;SDS011;3555;53.248;10.336;2022-10-16T15:21:08;2.38;;;0.90;;
7027;SDS011;3555;53.248;10.336;2022-10-16T15:23:46;4.57;;;1.00;;
7027;SDS011;3555;53.248;10.336;2022-10-16T15:26:15;4.45;;;0.77;;